Aérodrome :
LOGIN :

S'inscrire | Disclaimer

   EN    FR    IT 

 










Légende :    VFR   VFR Marginal   IFR   IFR Intensif   IFR Très Intensif
Visi : 
Plafond : 
>= 8 km
>= 3000ft
5 à 8 km
1000 à 3000 ft
1500m à 5 km
500 à 1000 ft
800 à 1500m
200 à 500 ft
< 800m
< 200 ft
Symboles :   Orages  Brouillard  Fortes neiges  Fortes précipitations  Vent > 20 kt
SIGMETs :   Divers  Orages  Givrage  Turbulence  Onde Orograph.  Cendres Volcan.






- Altitude de l'aérodrome : 588 ft
- Code IATA : DME


UUDD - Domodedovo International

DERNIER METAR :
  • 210700Z 21002MPS 170V250 8000 NSC 01/M00 Q1021 R88/60D NOSIG

METARs EXPIRÉS :
  • 210630Z 17002MPS 150V220 8000 NSC 00/M01 Q1021 R88/CLRD60 NOSIG
  • 210600Z 18002MPS 150V210 8000 NSC M00/M01 Q1021 R88/CLRD60 NOSIG
  • 210530Z 20002MPS 170V260 8000 NSC M03/M04 Q1021 R88/CLRD60 NOSIG
  • 210500Z VRB01MPS 7000 NSC M04/M05 Q1021 R88/60D NOSIG
  • 210430Z 22002MPS 180V250 6000 NSC M04/M05 Q1020 R88/CLRD60 NOSIG

TAF TAF UUDD
Valide du 21 à 06h jusqu'au 22 à 12h UTC


210455Z 2106/2212 20003G08MPS 8000 SCT016 TX05/2112Z TNM04/2203Z
PROB40
TEMPO 2122/2205 0300 FZFG FEW002
BECMG 2206/2208 20008G13MPS



MET'MAP, la Météo Aéronautique d'un coup d'oeil ! - Copyright ORBIFLY Décembre 2007 - Disclaimer

ORBIFLY MET'MAP TEAM :

Programmation & Développement : Alexandra Zaïnal
Sur une idée originale de : Baudouin d'Aumeries
Assistance à la programmation : Marc-Olivier Méhu
Soutien technique & logistique : Manuel Goepfert

Contact : metmap@orbifly.com




SOURCES & CREDITS :

   NOAA